sensor_id;sensor_type;location;lat;lon;timestamp;P1;durP1;ratioP1;P2;durP2;ratioP2
52456;SDS011;38369;52.840;7.082;2023-02-27T00:00:04;6.82;;;3.67;;
52456;SDS011;38369;52.840;7.082;2023-02-27T00:02:38;11.35;;;3.08;;
52456;SDS011;38369;52.840;7.082;2023-02-27T00:05:04;8.48;;;2.97;;
52456;SDS011;38369;52.840;7.082;2023-02-27T00:07:31;6.80;;;2.90;;
52456;SDS011;38369;52.840;7.082;2023-02-27T00:09:57;4.55;;;2.92;;
52456;SDS011;38369;52.840;7.082;2023-02-27T00:12:23;6.28;;;3.10;;
52456;SDS011;38369;52.840;7.082;2023-02-27T00:14:49;9.35;;;4.10;;
52456;SDS011;38369;52.840;7.082;2023-02-27T00:17:15;10.65;;;3.08;;
52456;SDS011;38369;52.840;7.082;2023-02-27T00:19:41;7.13;;;2.67;;
52456;SDS011;38369;52.840;7.082;2023-02-27T00:22:07;6.60;;;3.13;;
52456;SDS011;38369;52.840;7.082;2023-02-27T00:24:33;6.78;;;2.78;;
52456;SDS011;38369;52.840;7.082;2023-02-27T00:26:59;5.63;;;3.50;;
52456;SDS011;38369;52.840;7.082;2023-02-27T00:29:26;7.40;;;3.13;;
52456;SDS011;38369;52.840;7.082;2023-02-27T00:31:52;6.88;;;3.00;;
52456;SDS011;38369;52.840;7.082;2023-02-27T00:34:18;5.60;;;2.75;;
52456;SDS011;38369;52.840;7.082;2023-02-27T00:36:44;5.90;;;3.30;;
52456;SDS011;38369;52.840;7.082;2023-02-27T00:39:10;6.75;;;2.92;;
52456;SDS011;38369;52.840;7.082;2023-02-27T00:41:36;8.60;;;3.40;;
52456;SDS011;38369;52.840;7.082;2023-02-27T00:44:04;6.22;;;2.78;;
52456;SDS011;38369;52.840;7.082;2023-02-27T00:46:30;5.68;;;3.15;;
52456;SDS011;38369;52.840;7.082;2023-02-27T00:48:56;6.57;;;3.60;;
52456;SDS011;38369;52.840;7.082;2023-02-27T00:51:22;5.40;;;3.03;;
52456;SDS011;38369;52.840;7.082;2023-02-27T00:53:48;6.82;;;3.55;;
52456;SDS011;38369;52.840;7.082;2023-02-27T00:56:14;5.88;;;2.90;;
52456;SDS011;38369;52.840;7.082;2023-02-27T00:58:40;6.03;;;2.80;;
52456;SDS011;38369;52.840;7.082;2023-02-27T01:01:06;5.43;;;3.03;;
52456;SDS011;38369;52.840;7.082;2023-02-27T01:03:32;6.53;;;3.42;;
52456;SDS011;38369;52.840;7.082;2023-02-27T01:05:58;8.68;;;3.00;;
52456;SDS011;38369;52.840;7.082;2023-02-27T01:08:24;7.72;;;2.90;;
52456;SDS011;38369;52.840;7.082;2023-02-27T01:10:52;8.07;;;3.50;;
52456;SDS011;38369;52.840;7.082;2023-02-27T01:13:18;8.27;;;3.53;;
52456;SDS011;38369;52.840;7.082;2023-02-27T01:15:44;6.93;;;2.85;;
52456;SDS011;38369;52.840;7.082;2023-02-27T01:18:10;6.53;;;3.58;;
52456;SDS011;38369;52.840;7.082;2023-02-27T01:20:36;7.20;;;3.05;;
52456;SDS011;38369;52.840;7.082;2023-02-27T01:23:03;6.57;;;3.00;;
52456;SDS011;38369;52.840;7.082;2023-02-27T01:25:29;8.00;;;3.97;;
52456;SDS011;38369;52.840;7.082;2023-02-27T01:27:55;4.13;;;3.00;;
52456;SDS011;38369;52.840;7.082;2023-02-27T01:30:21;7.40;;;3.45;;
52456;SDS011;38369;52.840;7.082;2023-02-27T01:32:47;8.20;;;3.67;;
52456;SDS011;38369;52.840;7.082;2023-02-27T01:35:13;6.78;;;3.60;;
52456;SDS011;38369;52.840;7.082;2023-02-27T01:37:39;6.15;;;4.25;;
52456;SDS011;38369;52.840;7.082;2023-02-27T01:40:06;6.43;;;3.90;;
52456;SDS011;38369;52.840;7.082;2023-02-27T01:42:32;9.30;;;5.78;;
52456;SDS011;38369;52.840;7.082;2023-02-27T01:47:28;9.98;;;4.60;;
52456;SDS011;38369;52.840;7.082;2023-02-27T01:49:54;9.65;;;5.10;;
52456;SDS011;38369;52.840;7.082;2023-02-27T01:52:20;10.93;;;4.63;;
52456;SDS011;38369;52.840;7.082;2023-02-27T01:54:46;11.68;;;6.18;;
52456;SDS011;38369;52.840;7.082;2023-02-27T01:57:12;7.85;;;4.03;;
52456;SDS011;38369;52.840;7.082;2023-02-27T01:59:39;7.75;;;4.40;;
52456;SDS011;38369;52.840;7.082;2023-02-27T02:02:11;8.07;;;5.00;;
52456;SDS011;38369;52.840;7.082;2023-02-27T02:04:39;9.13;;;4.60;;
52456;SDS011;38369;52.840;7.082;2023-02-27T02:07:07;8.93;;;4.00;;
52456;SDS011;38369;52.840;7.082;2023-02-27T02:09:35;5.93;;;3.95;;
52456;SDS011;38369;52.840;7.082;2023-02-27T02:12:02;6.90;;;4.20;;
52456;SDS011;38369;52.840;7.082;2023-02-27T02:14:28;9.40;;;4.32;;
52456;SDS011;38369;52.840;7.082;2023-02-27T02:22:12;7.13;;;4.40;;
52456;SDS011;38369;52.840;7.082;2023-02-27T02:27:19;8.32;;;4.65;;
52456;SDS011;38369;52.840;7.082;2023-02-27T02:46:01;7.80;;;4.13;;
52456;SDS011;38369;52.840;7.082;2023-02-27T02:48:34;6.53;;;3.85;;
52456;SDS011;38369;52.840;7.082;2023-02-27T02:51:16;6.22;;;4.25;;
52456;SDS011;38369;52.840;7.082;2023-02-27T02:53:50;11.25;;;4.78;;
52456;SDS011;38369;52.840;7.082;2023-02-27T02:59:27;6.75;;;4.35;;
52456;SDS011;38369;52.840;7.082;2023-02-27T03:01:59;7.30;;;3.70;;
52456;SDS011;38369;52.840;7.082;2023-02-27T03:04:40;7.07;;;3.67;;
52456;SDS011;38369;52.840;7.082;2023-02-27T03:07:19;8.07;;;4.47;;
52456;SDS011;38369;52.840;7.082;2023-02-27T03:12:17;5.07;;;3.85;;
52456;SDS011;38369;52.840;7.082;2023-02-27T03:14:46;5.25;;;4.13;;
52456;SDS011;38369;52.840;7.082;2023-02-27T03:17:15;5.50;;;3.30;;
52456;SDS011;38369;52.840;7.082;2023-02-27T03:19:45;7.63;;;4.63;;
52456;SDS011;38369;52.840;7.082;2023-02-27T03:22:16;8.43;;;4.53;;
52456;SDS011;38369;52.840;7.082;2023-02-27T03:24:45;8.00;;;3.35;;
52456;SDS011;38369;52.840;7.082;2023-02-27T03:27:12;6.57;;;4.10;;
52456;SDS011;38369;52.840;7.082;2023-02-27T03:34:40;7.70;;;4.47;;
52456;SDS011;38369;52.840;7.082;2023-02-27T03:45:44;5.93;;;3.67;;
52456;SDS011;38369;52.840;7.082;2023-02-27T03:48:15;6.95;;;4.45;;
52456;SDS011;38369;52.840;7.082;2023-02-27T03:50:41;6.43;;;4.40;;
52456;SDS011;38369;52.840;7.082;2023-02-27T03:53:12;8.18;;;4.75;;
52456;SDS011;38369;52.840;7.082;2023-02-27T03:55:40;6.85;;;4.20;;
52456;SDS011;38369;52.840;7.082;2023-02-27T03:58:08;8.57;;;4.97;;
52456;SDS011;38369;52.840;7.082;2023-02-27T04:00:34;17.33;;;5.80;;
52456;SDS011;38369;52.840;7.082;2023-02-27T04:03:00;11.18;;;5.22;;
52456;SDS011;38369;52.840;7.082;2023-02-27T04:05:27;12.20;;;5.85;;
52456;SDS011;38369;52.840;7.082;2023-02-27T04:20:42;10.57;;;4.88;;
52456;SDS011;38369;52.840;7.082;2023-02-27T04:23:11;9.88;;;5.25;;
52456;SDS011;38369;52.840;7.082;2023-02-27T04:25:42;7.63;;;4.20;;
52456;SDS011;38369;52.840;7.082;2023-02-27T04:30:58;5.80;;;4.05;;
52456;SDS011;38369;52.840;7.082;2023-02-27T04:38:46;11.57;;;5.30;;
52456;SDS011;38369;52.840;7.082;2023-02-27T04:41:15;11.02;;;4.72;;
52456;SDS011;38369;52.840;7.082;2023-02-27T04:43:44;10.52;;;5.95;;
52456;SDS011;38369;52.840;7.082;2023-02-27T04:46:12;8.93;;;5.32;;
52456;SDS011;38369;52.840;7.082;2023-02-27T04:48:42;10.35;;;4.60;;
52456;SDS011;38369;52.840;7.082;2023-02-27T04:51:12;11.05;;;5.15;;
52456;SDS011;38369;52.840;7.082;2023-02-27T04:53:45;11.45;;;4.75;;
52456;SDS011;38369;52.840;7.082;2023-02-27T04:56:13;9.73;;;4.70;;
52456;SDS011;38369;52.840;7.082;2023-02-27T04:58:48;8.10;;;4.50;;
52456;SDS011;38369;52.840;7.082;2023-02-27T05:01:28;10.00;;;5.30;;
52456;SDS011;38369;52.840;7.082;2023-02-27T05:03:56;7.75;;;4.50;;
52456;SDS011;38369;52.840;7.082;2023-02-27T05:06:25;7.35;;;4.57;;
52456;SDS011;38369;52.840;7.082;2023-02-27T05:08:55;11.68;;;5.05;;
52456;SDS011;38369;52.840;7.082;2023-02-27T05:11:34;8.57;;;4.22;;
52456;SDS011;38369;52.840;7.082;2023-02-27T05:14:07;14.13;;;5.28;;
52456;SDS011;38369;52.840;7.082;2023-02-27T05:16:44;9.93;;;4.68;;
52456;SDS011;38369;52.840;7.082;2023-02-27T05:19:11;10.65;;;5.13;;
52456;SDS011;38369;52.840;7.082;2023-02-27T05:21:39;9.05;;;4.80;;
52456;SDS011;38369;52.840;7.082;2023-02-27T05:36:41;9.65;;;5.50;;
52456;SDS011;38369;52.840;7.082;2023-02-27T05:39:09;6.85;;;5.25;;
52456;SDS011;38369;52.840;7.082;2023-02-27T05:41:59;14.32;;;5.45;;
52456;SDS011;38369;52.840;7.082;2023-02-27T05:44:24;7.43;;;4.57;;
52456;SDS011;38369;52.840;7.082;2023-02-27T05:46:55;8.88;;;5.28;;
52456;SDS011;38369;52.840;7.082;2023-02-27T05:49:31;12.30;;;5.30;;
52456;SDS011;38369;52.840;7.082;2023-02-27T05:51:59;9.93;;;4.97;;
52456;SDS011;38369;52.840;7.082;2023-02-27T05:54:31;6.88;;;4.15;;
52456;SDS011;38369;52.840;7.082;2023-02-27T05:56:58;7.63;;;4.78;;
52456;SDS011;38369;52.840;7.082;2023-02-27T05:59:34;8.40;;;4.50;;
52456;SDS011;38369;52.840;7.082;2023-02-27T06:02:03;10.00;;;4.32;;
52456;SDS011;38369;52.840;7.082;2023-02-27T06:04:29;10.70;;;5.20;;
52456;SDS011;38369;52.840;7.082;2023-02-27T06:06:55;10.95;;;4.75;;
52456;SDS011;38369;52.840;7.082;2023-02-27T06:09:21;12.00;;;4.80;;
52456;SDS011;38369;52.840;7.082;2023-02-27T06:11:48;16.17;;;5.10;;
52456;SDS011;38369;52.840;7.082;2023-02-27T06:14:14;7.60;;;4.38;;
52456;SDS011;38369;52.840;7.082;2023-02-27T06:16:40;8.25;;;5.32;;
52456;SDS011;38369;52.840;7.082;2023-02-27T06:19:06;9.77;;;5.88;;
52456;SDS011;38369;52.840;7.082;2023-02-27T06:21:32;13.20;;;4.68;;
52456;SDS011;38369;52.840;7.082;2023-02-27T06:23:58;11.30;;;6.07;;
52456;SDS011;38369;52.840;7.082;2023-02-27T06:26:24;10.10;;;5.82;;
52456;SDS011;38369;52.840;7.082;2023-02-27T06:28:50;8.65;;;5.63;;
52456;SDS011;38369;52.840;7.082;2023-02-27T06:31:16;7.75;;;5.05;;
52456;SDS011;38369;52.840;7.082;2023-02-27T06:33:42;9.88;;;5.55;;
52456;SDS011;38369;52.840;7.082;2023-02-27T06:36:08;8.63;;;5.43;;
52456;SDS011;38369;52.840;7.082;2023-02-27T06:38:34;10.80;;;5.80;;
52456;SDS011;38369;52.840;7.082;2023-02-27T06:41:01;10.95;;;6.22;;
52456;SDS011;38369;52.840;7.082;2023-02-27T06:43:28;9.50;;;6.40;;
52456;SDS011;38369;52.840;7.082;2023-02-27T06:45:58;7.85;;;5.32;;
52456;SDS011;38369;52.840;7.082;2023-02-27T06:48:24;8.52;;;5.28;;
52456;SDS011;38369;52.840;7.082;2023-02-27T06:50:54;6.93;;;5.05;;
52456;SDS011;38369;52.840;7.082;2023-02-27T06:53:21;10.98;;;5.57;;
52456;SDS011;38369;52.840;7.082;2023-02-27T06:55:48;10.13;;;5.00;;
52456;SDS011;38369;52.840;7.082;2023-02-27T06:58:14;9.68;;;5.35;;
52456;SDS011;38369;52.840;7.082;2023-02-27T07:00:40;14.55;;;6.72;;
52456;SDS011;38369;52.840;7.082;2023-02-27T07:03:07;9.02;;;4.93;;
52456;SDS011;38369;52.840;7.082;2023-02-27T07:08:56;12.90;;;5.55;;
52456;SDS011;38369;52.840;7.082;2023-02-27T07:11:22;10.10;;;5.80;;
52456;SDS011;38369;52.840;7.082;2023-02-27T07:13:48;11.05;;;5.35;;
52456;SDS011;38369;52.840;7.082;2023-02-27T07:16:14;13.30;;;7.00;;
52456;SDS011;38369;52.840;7.082;2023-02-27T07:18:40;17.35;;;6.50;;
52456;SDS011;38369;52.840;7.082;2023-02-27T07:21:06;12.18;;;5.90;;
52456;SDS011;38369;52.840;7.082;2023-02-27T07:23:32;14.32;;;6.68;;
52456;SDS011;38369;52.840;7.082;2023-02-27T07:25:59;12.25;;;6.63;;
52456;SDS011;38369;52.840;7.082;2023-02-27T07:28:25;11.82;;;5.72;;
52456;SDS011;38369;52.840;7.082;2023-02-27T07:30:54;11.10;;;6.55;;
52456;SDS011;38369;52.840;7.082;2023-02-27T07:33:20;12.35;;;5.95;;
52456;SDS011;38369;52.840;7.082;2023-02-27T07:35:48;9.77;;;5.53;;
52456;SDS011;38369;52.840;7.082;2023-02-27T07:38:14;11.38;;;5.75;;
52456;SDS011;38369;52.840;7.082;2023-02-27T07:40:40;13.73;;;6.13;;
52456;SDS011;38369;52.840;7.082;2023-02-27T07:43:06;7.82;;;5.55;;
52456;SDS011;38369;52.840;7.082;2023-02-27T07:45:32;7.53;;;4.70;;
52456;SDS011;38369;52.840;7.082;2023-02-27T07:47:59;11.70;;;5.00;;
52456;SDS011;38369;52.840;7.082;2023-02-27T07:50:25;13.48;;;5.40;;
52456;SDS011;38369;52.840;7.082;2023-02-27T07:52:51;7.93;;;4.80;;
52456;SDS011;38369;52.840;7.082;2023-02-27T07:55:17;10.75;;;5.32;;
52456;SDS011;38369;52.840;7.082;2023-02-27T07:57:43;12.55;;;6.03;;
52456;SDS011;38369;52.840;7.082;2023-02-27T08:00:10;12.90;;;5.40;;
52456;SDS011;38369;52.840;7.082;2023-02-27T08:02:36;10.27;;;6.25;;
52456;SDS011;38369;52.840;7.082;2023-02-27T08:05:02;13.02;;;6.75;;
52456;SDS011;38369;52.840;7.082;2023-02-27T08:07:29;11.77;;;6.43;;
52456;SDS011;38369;52.840;7.082;2023-02-27T08:09:55;9.40;;;5.60;;
52456;SDS011;38369;52.840;7.082;2023-02-27T08:12:21;15.25;;;5.80;;
52456;SDS011;38369;52.840;7.082;2023-02-27T08:14:47;12.27;;;4.95;;
52456;SDS011;38369;52.840;7.082;2023-02-27T08:17:13;11.32;;;5.80;;
52456;SDS011;38369;52.840;7.082;2023-02-27T08:19:39;11.40;;;5.10;;
52456;SDS011;38369;52.840;7.082;2023-02-27T08:22:05;8.57;;;5.38;;
52456;SDS011;38369;52.840;7.082;2023-02-27T08:24:32;12.05;;;5.47;;
52456;SDS011;38369;52.840;7.082;2023-02-27T08:26:58;13.05;;;4.65;;
52456;SDS011;38369;52.840;7.082;2023-02-27T08:29:24;13.20;;;5.25;;
52456;SDS011;38369;52.840;7.082;2023-02-27T08:31:51;14.40;;;5.65;;
52456;SDS011;38369;52.840;7.082;2023-02-27T08:34:17;11.55;;;5.63;;
52456;SDS011;38369;52.840;7.082;2023-02-27T08:36:43;11.77;;;5.18;;
52456;SDS011;38369;52.840;7.082;2023-02-27T08:39:09;12.40;;;5.68;;
52456;SDS011;38369;52.840;7.082;2023-02-27T08:41:36;12.85;;;4.63;;
52456;SDS011;38369;52.840;7.082;2023-02-27T08:44:02;7.10;;;4.70;;
52456;SDS011;38369;52.840;7.082;2023-02-27T08:46:28;14.13;;;5.57;;
52456;SDS011;38369;52.840;7.082;2023-02-27T08:48:54;7.82;;;5.00;;
52456;SDS011;38369;52.840;7.082;2023-02-27T08:51:20;10.65;;;5.35;;
52456;SDS011;38369;52.840;7.082;2023-02-27T08:53:47;9.15;;;5.03;;
52456;SDS011;38369;52.840;7.082;2023-02-27T08:56:13;8.77;;;5.65;;
52456;SDS011;38369;52.840;7.082;2023-02-27T08:58:39;11.40;;;5.38;;
52456;SDS011;38369;52.840;7.082;2023-02-27T09:01:05;7.00;;;4.75;;
52456;SDS011;38369;52.840;7.082;2023-02-27T09:03:31;10.35;;;5.63;;
52456;SDS011;38369;52.840;7.082;2023-02-27T09:05:57;7.60;;;5.13;;
52456;SDS011;38369;52.840;7.082;2023-02-27T09:08:24;12.52;;;5.40;;
52456;SDS011;38369;52.840;7.082;2023-02-27T09:10:50;9.50;;;4.45;;
52456;SDS011;38369;52.840;7.082;2023-02-27T09:13:16;9.15;;;4.30;;
52456;SDS011;38369;52.840;7.082;2023-02-27T09:15:42;8.70;;;4.53;;
52456;SDS011;38369;52.840;7.082;2023-02-27T09:18:08;11.32;;;5.20;;
52456;SDS011;38369;52.840;7.082;2023-02-27T09:20:34;9.15;;;4.30;;
52456;SDS011;38369;52.840;7.082;2023-02-27T09:23:01;12.73;;;4.80;;
52456;SDS011;38369;52.840;7.082;2023-02-27T09:25:27;11.07;;;4.78;;
52456;SDS011;38369;52.840;7.082;2023-02-27T09:27:54;8.25;;;5.07;;
52456;SDS011;38369;52.840;7.082;2023-02-27T09:30:20;8.02;;;4.88;;
52456;SDS011;38369;52.840;7.082;2023-02-27T09:32:46;10.13;;;5.70;;
52456;SDS011;38369;52.840;7.082;2023-02-27T09:35:12;13.05;;;4.53;;
52456;SDS011;38369;52.840;7.082;2023-02-27T09:37:41;8.55;;;3.90;;
52456;SDS011;38369;52.840;7.082;2023-02-27T09:40:12;6.97;;;4.18;;
52456;SDS011;38369;52.840;7.082;2023-02-27T09:42:40;6.20;;;3.00;;
52456;SDS011;38369;52.840;7.082;2023-02-27T09:45:16;8.88;;;3.70;;
52456;SDS011;38369;52.840;7.082;2023-02-27T09:47:45;13.43;;;4.07;;
52456;SDS011;38369;52.840;7.082;2023-02-27T09:50:27;10.40;;;3.75;;
52456;SDS011;38369;52.840;7.082;2023-02-27T09:52:55;7.88;;;3.17;;
52456;SDS011;38369;52.840;7.082;2023-02-27T09:55:22;5.88;;;3.40;;
52456;SDS011;38369;52.840;7.082;2023-02-27T10:03:18;9.45;;;3.70;;
52456;SDS011;38369;52.840;7.082;2023-02-27T10:08:16;6.03;;;3.75;;
52456;SDS011;38369;52.840;7.082;2023-02-27T10:10:51;6.82;;;4.65;;
52456;SDS011;38369;52.840;7.082;2023-02-27T10:15:53;7.65;;;3.33;;
52456;SDS011;38369;52.840;7.082;2023-02-27T10:23:20;6.50;;;2.30;;
52456;SDS011;38369;52.840;7.082;2023-02-27T10:25:48;7.95;;;3.47;;
52456;SDS011;38369;52.840;7.082;2023-02-27T10:28:16;10.35;;;3.17;;
52456;SDS011;38369;52.840;7.082;2023-02-27T10:30:49;8.88;;;2.83;;
52456;SDS011;38369;52.840;7.082;2023-02-27T10:35:51;4.32;;;2.10;;
52456;SDS011;38369;52.840;7.082;2023-02-27T10:40:55;6.80;;;1.77;;
52456;SDS011;38369;52.840;7.082;2023-02-27T10:43:22;2.53;;;1.50;;
52456;SDS011;38369;52.840;7.082;2023-02-27T10:45:48;6.45;;;1.75;;
52456;SDS011;38369;52.840;7.082;2023-02-27T10:48:14;3.78;;;1.83;;
52456;SDS011;38369;52.840;7.082;2023-02-27T10:50:42;7.63;;;2.10;;
52456;SDS011;38369;52.840;7.082;2023-02-27T10:53:26;6.53;;;1.92;;
52456;SDS011;38369;52.840;7.082;2023-02-27T10:55:57;3.83;;;1.98;;
52456;SDS011;38369;52.840;7.082;2023-02-27T10:58:25;3.65;;;1.60;;
52456;SDS011;38369;52.840;7.082;2023-02-27T11:00:57;6.82;;;2.50;;
52456;SDS011;38369;52.840;7.082;2023-02-27T11:03:27;3.10;;;1.98;;
52456;SDS011;38369;52.840;7.082;2023-02-27T11:05:56;6.55;;;2.08;;
52456;SDS011;38369;52.840;7.082;2023-02-27T11:08:23;4.97;;;2.50;;
52456;SDS011;38369;52.840;7.082;2023-02-27T11:13:19;4.65;;;2.25;;
52456;SDS011;38369;52.840;7.082;2023-02-27T11:15:46;7.03;;;2.92;;
52456;SDS011;38369;52.840;7.082;2023-02-27T11:18:27;3.75;;;1.80;;
52456;SDS011;38369;52.840;7.082;2023-02-27T11:23:50;7.57;;;1.70;;
52456;SDS011;38369;52.840;7.082;2023-02-27T11:26:19;6.28;;;1.60;;
52456;SDS011;38369;52.840;7.082;2023-02-27T11:28:46;7.45;;;2.05;;
52456;SDS011;38369;52.840;7.082;2023-02-27T11:31:27;3.50;;;1.65;;
52456;SDS011;38369;52.840;7.082;2023-02-27T11:33:54;4.95;;;1.60;;
52456;SDS011;38369;52.840;7.082;2023-02-27T11:36:21;3.15;;;1.73;;
52456;SDS011;38369;52.840;7.082;2023-02-27T11:38:51;4.45;;;1.88;;
52456;SDS011;38369;52.840;7.082;2023-02-27T11:41:18;8.23;;;1.83;;
52456;SDS011;38369;52.840;7.082;2023-02-27T11:43:50;3.95;;;2.30;;
52456;SDS011;38369;52.840;7.082;2023-02-27T11:46:18;5.38;;;2.05;;
52456;SDS011;38369;52.840;7.082;2023-02-27T11:48:52;5.07;;;1.90;;
52456;SDS011;38369;52.840;7.082;2023-02-27T11:54:07;5.35;;;1.88;;
52456;SDS011;38369;52.840;7.082;2023-02-27T11:59:16;3.70;;;1.52;;
52456;SDS011;38369;52.840;7.082;2023-02-27T12:07:05;6.00;;;2.15;;
52456;SDS011;38369;52.840;7.082;2023-02-27T12:11:59;3.78;;;1.67;;
52456;SDS011;38369;52.840;7.082;2023-02-27T12:14:31;2.58;;;1.67;;
52456;SDS011;38369;52.840;7.082;2023-02-27T12:17:05;4.40;;;2.20;;
52456;SDS011;38369;52.840;7.082;2023-02-27T12:19:45;3.50;;;2.05;;
52456;SDS011;38369;52.840;7.082;2023-02-27T12:30:14;6.90;;;1.90;;
52456;SDS011;38369;52.840;7.082;2023-02-27T12:32:43;7.07;;;2.13;;
52456;SDS011;38369;52.840;7.082;2023-02-27T12:35:18;6.22;;;2.00;;
52456;SDS011;38369;52.840;7.082;2023-02-27T12:37:45;3.03;;;2.13;;
52456;SDS011;38369;52.840;7.082;2023-02-27T12:40:15;2.85;;;1.40;;
52456;SDS011;38369;52.840;7.082;2023-02-27T12:50:25;8.25;;;1.55;;
52456;SDS011;38369;52.840;7.082;2023-02-27T12:53:05;8.43;;;1.83;;
52456;SDS011;38369;52.840;7.082;2023-02-27T12:55:46;3.55;;;1.70;;
52456;SDS011;38369;52.840;7.082;2023-02-27T13:00:50;6.03;;;1.45;;
52456;SDS011;38369;52.840;7.082;2023-02-27T13:05:52;4.65;;;1.25;;
52456;SDS011;38369;52.840;7.082;2023-02-27T13:11:12;2.90;;;1.70;;
52456;SDS011;38369;52.840;7.082;2023-02-27T13:13:46;2.90;;;1.10;;
52456;SDS011;38369;52.840;7.082;2023-02-27T13:16:49;3.97;;;1.30;;
52456;SDS011;38369;52.840;7.082;2023-02-27T13:26:44;5.43;;;2.40;;
52456;SDS011;38369;52.840;7.082;2023-02-27T13:29:14;3.28;;;1.20;;
52456;SDS011;38369;52.840;7.082;2023-02-27T13:34:29;3.58;;;1.23;;
52456;SDS011;38369;52.840;7.082;2023-02-27T13:37:05;2.30;;;1.30;;
52456;SDS011;38369;52.840;7.082;2023-02-27T13:42:02;3.15;;;1.48;;
52456;SDS011;38369;52.840;7.082;2023-02-27T13:44:36;3.22;;;1.35;;
52456;SDS011;38369;52.840;7.082;2023-02-27T13:49:47;3.10;;;1.65;;
52456;SDS011;38369;52.840;7.082;2023-02-27T13:52:13;9.40;;;2.03;;
52456;SDS011;38369;52.840;7.082;2023-02-27T13:54:52;2.13;;;1.10;;
52456;SDS011;38369;52.840;7.082;2023-02-27T13:57:19;3.80;;;0.98;;
52456;SDS011;38369;52.840;7.082;2023-02-27T13:59:55;3.17;;;1.20;;
52456;SDS011;38369;52.840;7.082;2023-02-27T14:04:50;2.28;;;1.00;;
52456;SDS011;38369;52.840;7.082;2023-02-27T14:07:21;3.40;;;1.75;;
52456;SDS011;38369;52.840;7.082;2023-02-27T14:09:49;1.77;;;1.00;;
52456;SDS011;38369;52.840;7.082;2023-02-27T14:17:50;3.72;;;1.10;;
52456;SDS011;38369;52.840;7.082;2023-02-27T14:30:45;29.48;;;4.97;;
52456;SDS011;38369;52.840;7.082;2023-02-27T14:33:17;2.33;;;1.17;;
52456;SDS011;38369;52.840;7.082;2023-02-27T14:35:46;12.45;;;2.08;;
52456;SDS011;38369;52.840;7.082;2023-02-27T14:38:15;2.13;;;1.23;;
52456;SDS011;38369;52.840;7.082;2023-02-27T14:40:47;2.28;;;0.80;;
52456;SDS011;38369;52.840;7.082;2023-02-27T14:43:23;4.30;;;1.25;;
52456;SDS011;38369;52.840;7.082;2023-02-27T14:45:51;2.13;;;1.13;;
52456;SDS011;38369;52.840;7.082;2023-02-27T14:48:23;3.67;;;1.02;;
52456;SDS011;38369;52.840;7.082;2023-02-27T14:50:52;2.78;;;1.10;;
52456;SDS011;38369;52.840;7.082;2023-02-27T14:53:22;3.38;;;1.10;;
52456;SDS011;38369;52.840;7.082;2023-02-27T14:55:52;2.45;;;0.98;;
52456;SDS011;38369;52.840;7.082;2023-02-27T14:58:19;2.58;;;1.27;;
52456;SDS011;38369;52.840;7.082;2023-02-27T15:01:05;3.33;;;1.25;;
52456;SDS011;38369;52.840;7.082;2023-02-27T15:03:39;2.30;;;1.20;;
52456;SDS011;38369;52.840;7.082;2023-02-27T15:06:12;1.95;;;1.20;;
52456;SDS011;38369;52.840;7.082;2023-02-27T15:08:39;4.20;;;1.52;;
52456;SDS011;38369;52.840;7.082;2023-02-27T15:11:06;2.03;;;1.50;;
52456;SDS011;38369;52.840;7.082;2023-02-27T15:13:34;3.15;;;1.58;;
52456;SDS011;38369;52.840;7.082;2023-02-27T15:16:17;2.20;;;1.60;;
52456;SDS011;38369;52.840;7.082;2023-02-27T15:18:45;2.55;;;1.38;;
52456;SDS011;38369;52.840;7.082;2023-02-27T15:21:13;3.55;;;1.30;;
52456;SDS011;38369;52.840;7.082;2023-02-27T15:23:40;1.73;;;1.20;;
52456;SDS011;38369;52.840;7.082;2023-02-27T15:26:06;3.25;;;1.30;;
52456;SDS011;38369;52.840;7.082;2023-02-27T15:28:36;1.67;;;0.90;;
52456;SDS011;38369;52.840;7.082;2023-02-27T15:31:03;1.67;;;1.27;;
52456;SDS011;38369;52.840;7.082;2023-02-27T15:33:30;3.10;;;1.00;;
52456;SDS011;38369;52.840;7.082;2023-02-27T15:35:57;4.07;;;1.45;;
52456;SDS011;38369;52.840;7.082;2023-02-27T15:38:34;2.33;;;1.30;;
52456;SDS011;38369;52.840;7.082;2023-02-27T15:41:02;3.40;;;1.20;;
52456;SDS011;38369;52.840;7.082;2023-02-27T15:43:28;1.80;;;1.02;;
52456;SDS011;38369;52.840;7.082;2023-02-27T15:45:55;2.97;;;1.10;;
52456;SDS011;38369;52.840;7.082;2023-02-27T15:48:22;5.60;;;1.83;;
52456;SDS011;38369;52.840;7.082;2023-02-27T15:50:58;5.65;;;1.00;;
52456;SDS011;38369;52.840;7.082;2023-02-27T15:53:27;4.57;;;1.40;;
52456;SDS011;38369;52.840;7.082;2023-02-27T15:55:58;3.83;;;1.30;;
52456;SDS011;38369;52.840;7.082;2023-02-27T15:58:27;2.25;;;1.02;;
52456;SDS011;38369;52.840;7.082;2023-02-27T16:01:39;3.63;;;1.50;;
52456;SDS011;38369;52.840;7.082;2023-02-27T16:03:43;2.78;;;1.08;;
52456;SDS011;38369;52.840;7.082;2023-02-27T16:06:10;1.70;;;1.10;;
52456;SDS011;38369;52.840;7.082;2023-02-27T16:08:38;3.72;;;1.00;;
52456;SDS011;38369;52.840;7.082;2023-02-27T16:11:16;3.33;;;1.40;;
52456;SDS011;38369;52.840;7.082;2023-02-27T16:13:42;1.92;;;0.90;;
52456;SDS011;38369;52.840;7.082;2023-02-27T16:18:47;2.60;;;1.10;;
52456;SDS011;38369;52.840;7.082;2023-02-27T16:21:14;4.22;;;1.05;;
52456;SDS011;38369;52.840;7.082;2023-02-27T16:23:41;2.05;;;1.58;;
52456;SDS011;38369;52.840;7.082;2023-02-27T16:28:36;3.40;;;1.35;;
52456;SDS011;38369;52.840;7.082;2023-02-27T16:31:03;3.37;;;1.30;;
52456;SDS011;38369;52.840;7.082;2023-02-27T16:33:31;4.05;;;1.30;;
52456;SDS011;38369;52.840;7.082;2023-02-27T16:36:05;4.68;;;1.52;;
52456;SDS011;38369;52.840;7.082;2023-02-27T16:38:33;1.67;;;1.02;;
52456;SDS011;38369;52.840;7.082;2023-02-27T16:40:59;4.25;;;1.85;;
52456;SDS011;38369;52.840;7.082;2023-02-27T16:43:25;3.28;;;1.48;;
52456;SDS011;38369;52.840;7.082;2023-02-27T16:45:51;4.07;;;1.20;;
52456;SDS011;38369;52.840;7.082;2023-02-27T16:48:20;1.88;;;1.15;;
52456;SDS011;38369;52.840;7.082;2023-02-27T16:50:46;10.57;;;5.93;;
52456;SDS011;38369;52.840;7.082;2023-02-27T16:53:12;18.13;;;8.98;;
52456;SDS011;38369;52.840;7.082;2023-02-27T16:55:38;11.38;;;5.32;;
52456;SDS011;38369;52.840;7.082;2023-02-27T16:58:06;14.25;;;6.30;;
52456;SDS011;38369;52.840;7.082;2023-02-27T17:00:32;14.27;;;6.35;;
52456;SDS011;38369;52.840;7.082;2023-02-27T17:02:58;27.83;;;13.93;;
52456;SDS011;38369;52.840;7.082;2023-02-27T17:05:25;12.95;;;6.95;;
52456;SDS011;38369;52.840;7.082;2023-02-27T17:07:51;7.20;;;3.50;;
52456;SDS011;38369;52.840;7.082;2023-02-27T17:10:18;6.22;;;3.03;;
52456;SDS011;38369;52.840;7.082;2023-02-27T17:12:44;7.05;;;3.20;;
52456;SDS011;38369;52.840;7.082;2023-02-27T17:15:11;5.68;;;2.72;;
52456;SDS011;38369;52.840;7.082;2023-02-27T17:17:38;3.08;;;1.60;;
52456;SDS011;38369;52.840;7.082;2023-02-27T17:20:04;5.80;;;1.95;;
52456;SDS011;38369;52.840;7.082;2023-02-27T17:22:37;2.47;;;1.50;;
52456;SDS011;38369;52.840;7.082;2023-02-27T17:25:04;3.90;;;1.90;;
52456;SDS011;38369;52.840;7.082;2023-02-27T17:27:31;3.53;;;1.52;;
52456;SDS011;38369;52.840;7.082;2023-02-27T17:29:57;3.55;;;1.70;;
52456;SDS011;38369;52.840;7.082;2023-02-27T17:32:23;4.07;;;2.35;;
52456;SDS011;38369;52.840;7.082;2023-02-27T17:34:52;37.97;;;18.23;;
52456;SDS011;38369;52.840;7.082;2023-02-27T17:37:19;34.03;;;16.03;;
52456;SDS011;38369;52.840;7.082;2023-02-27T17:39:45;23.48;;;10.82;;
52456;SDS011;38369;52.840;7.082;2023-02-27T17:42:11;4.10;;;2.00;;
52456;SDS011;38369;52.840;7.082;2023-02-27T17:44:40;3.97;;;2.50;;
52456;SDS011;38369;52.840;7.082;2023-02-27T17:47:07;7.07;;;1.90;;
52456;SDS011;38369;52.840;7.082;2023-02-27T17:49:33;3.88;;;1.98;;
52456;SDS011;38369;52.840;7.082;2023-02-27T17:51:59;3.55;;;1.73;;
52456;SDS011;38369;52.840;7.082;2023-02-27T17:54:25;2.70;;;1.60;;